MDT,Max TemperatureF,Mean TemperatureF,Min TemperatureF,Max Dew PointF,MeanDew PointF,Min DewpointF,Max Humidity, Mean Humidity, Min Humidity, Max Sea Level PressureIn, Mean Sea Level PressureIn, Min Sea Level PressureIn, Max VisibilityMiles, Mean VisibilityMiles, Min VisibilityMiles, Max Wind SpeedMPH, Mean Wind SpeedMPH, Max Gust SpeedMPH,PrecipitationIn, CloudCover, Events, WindDirDegrees
2013-3-1,62,47,32,28,22,16,54,42,29,30.29,30.23,30.15,10,10,10,31,19,38,0.00,5,,249
2013-3-2,62,50,38,28,27,25,59,43,27,30.20,30.08,29.84,10,10,10,24,15,29,0.00,3,,234
2013-3-3,54,39,24,31,26,12,68,55,41,29.88,29.70,29.52,10,8,0,48,15,58,0.17,6,Fog-Rain-Snow-Hail-Thunderstorm,288
2013-3-4,30,23,15,14,11,10,74,60,46,30.48,30.27,29.96,10,10,4,36,20,48,T,4,Snow,345
2013-3-5,30,18,6,20,14,5,91,77,63,30.43,30.29,30.05,10,10,10,10,5,13,0.00,0,,37
2013-3-6,34,25,16,24,20,12,92,78,64,30.12,29.93,29.80,10,10,10,12,6,14,0.00,3,Fog,34
2013-3-7,53,40,26,28,23,12,85,52,19,30.07,29.97,29.81,10,10,10,23,11,29,0.00,2,,291
2013-3-8,46,37,28,27,25,23,82,66,49,30.03,29.96,29.88,10,10,10,13,7,17,0.00,3,,27
2013-3-9,48,36,24,25,19,15,92,60,28,30.30,30.13,29.95,10,10,10,31,11,39,0.00,2,,315
2013-3-10,58,40,22,21,17,14,77,48,19,30.29,30.13,29.98,10,10,10,24,11,30,T,3,,253
2013-3-11,46,37,27,25,20,13,61,48,34,30.35,30.12,29.97,10,10,10,31,14,37,T,6,,1
2013-3-12,48,35,22,24,20,17,92,62,31,30.38,30.25,30.06,10,10,9,20,9,24,T,5,Snow,218
2013-3-13,69,54,38,27,24,20,52,36,20,30.11,30.06,29.99,10,10,10,35,15,44,0.00,2,,249
2013-3-14,69,56,42,30,27,24,53,38,22,30.13,30.04,29.87,10,10,10,26,10,31,0.00,3,,219
2013-3-15,66,49,31,28,24,17,75,46,16,30.06,29.90,29.81,10,10,10,33,16,45,0.00,3,,326
2013-3-16,49,37,25,27,25,22,92,67,42,30.05,29.94,29.72,10,10,10,17,7,20,0.00,3,,41
2013-3-17,44,31,18,32,17,7,85,54,22,29.99,29.67,29.44,10,10,9,40,17,52,T,6,Snow,322
2013-3-18,43,28,12,18,10,4,80,50,19,30.05,29.97,29.83,10,10,10,38,11,50,T,6,,303
2013-3-19,38,31,23,22,19,15,88,64,40,30.37,30.25,30.03,10,8,0,15,8,17,0.01,5,Snow,80
2013-3-20,57,38,18,22,17,14,77,50,22,30.27,29.86,29.55,10,10,10,15,5,17,0.00,2,,88
2013-3-21,48,38,27,31,18,5,75,48,20,29.93,29.71,29.53,10,9,2,31,16,41,T,6,Rain-Snow,319
2013-3-22,33,27,20,27,17,7,92,67,42,30.25,30.01,29.88,10,8,0,20,9,23,0.07,5,Fog-Snow,8
2013-3-23,34,24,13,13,7,3,80,54,28,30.37,30.31,30.25,10,10,10,21,9,26,0.00,3,,328
2013-3-24,35,22,9,10,8,4,84,56,28,30.42,30.37,30.24,10,10,10,17,6,22,0.00,2,,31
2013-3-25,47,29,10,12,7,5,83,51,19,30.38,30.24,30.07,10,10,10,16,6,21,0.00,0,,196
2013-3-26,54,41,28,21,13,7,42,34,25,30.03,30.00,29.95,10,10,10,15,8,20,0.00,2,,179
2013-3-27,61,42,23,22,18,13,65,41,17,30.07,30.01,29.95,10,10,10,15,7,20,0.00,2,,252
2013-3-28,63,48,32,27,23,20,56,40,23,30.09,30.03,29.98,10,10,10,13,7,15,0.00,1,,243
2013-3-29,63,52,40,38,31,23,76,54,32,30.11,30.05,29.99,10,10,10,33,12,41,0.01,6,Rain,257
2013-3-30,61,51,40,34,25,19,65,43,21,30.17,30.13,30.05,10,10,10,29,13,35,0.00,3,,306
2013-3-31,63,48,32,26,22,20,61,42,23,30.16,30.06,29.99,10,10,10,31,13,36,0.00,2,,13